Main page
Satellite images 15-day forecastsClimateMarine weather Cyclones Lightning AirportsFAQ Newsletter About
Weather : Europe Africa North America South America Asia Australia-Oceania Others
Languages Contact

London, England

City airport

latitude: 51-30N, longitude: 000-03E, elevation: 5 m


METAR: EGLC 302120Z AUTO 22007KT 8000 SCT014/// 17/13 Q1024
TAF: EGLC 301808Z 3018/3021 23007KT 9999 SCT045 TEMPO 3018/3021 7000 BKN010

Time: 22:53 (21:53 UTC)

Current weather observation

The report was made 33 minutes ago, at 21:20 UTC  
Wind 07 kt from the Southwest
Temperature 17°C
Humidity 77%
Pressure 1024 hPa
Visibility 8000 m

Change units

Forecast

The report was made 03 hours and 45 minutes ago, at 18:08 UTC  
Forecast valid from 30 at 18 UTC to 30 at 21 UTC
Wind 07 kt from the Southwest
Visibility 10 km or more
Scattered clouds at a height of 4500 ft
Temporary
from 30 at 18 UTC to 30 at 21 UTC
Visibility 7000 m
Broken clouds at a height of 1000 ft
The information on this site is subject to a disclaimer
Weather : Europe Africa North America South America Asia Australia-Oceania Others
Satellite images 15-day forecastsClimateMarine weather Cyclones Lightning AirportsFAQ Languages Contact Newsletter About